createdAt,value
2022-11-28T00:02:56.993Z,16.4
2022-11-28T00:07:59.898Z,16.1
2022-11-28T00:12:59.591Z,16.4
2022-11-28T00:17:59.635Z,16.3
2022-11-28T00:22:59.999Z,16.4
2022-11-28T00:28:08.889Z,16.1
2022-11-28T00:33:03.720Z,16
2022-11-28T00:38:06.419Z,16.4
2022-11-28T00:43:09.065Z,16
2022-11-28T00:48:08.825Z,16.4
2022-11-28T00:53:11.645Z,16.3
2022-11-28T00:58:13.241Z,16.2
2022-11-28T01:03:16.082Z,16.3
2022-11-28T01:08:18.475Z,16.2
2022-11-28T01:13:20.853Z,16.3
2022-11-28T01:18:20.789Z,16.3
2022-11-28T01:23:20.805Z,16
2022-11-28T01:28:20.814Z,16.3
2022-11-28T01:33:20.838Z,16
2022-11-28T01:38:21.345Z,16
2022-11-28T01:43:24.024Z,16.3
2022-11-28T01:48:23.605Z,16.1
2022-11-28T01:53:24.205Z,16.3
2022-11-28T01:58:27.052Z,16.3
2022-11-28T02:03:26.599Z,16.3
2022-11-28T02:08:29.829Z,16.2
2022-11-28T02:13:29.462Z,16
2022-11-28T02:18:32.521Z,16.2
2022-11-28T02:23:32.414Z,16
2022-11-28T02:28:32.374Z,16.1
2022-11-28T02:33:32.705Z,16.2
2022-11-28T02:38:35.903Z,16
2022-11-28T02:43:39.995Z,16
2022-11-28T02:48:39.458Z,15.9
2022-11-28T02:53:39.657Z,16.2
2022-11-28T02:58:39.811Z,16.1
2022-11-28T03:03:40.073Z,16.2
2022-11-28T03:08:40.187Z,16.2
2022-11-28T03:13:40.222Z,16.2
2022-11-28T03:18:40.454Z,15.9
2022-11-28T03:23:40.455Z,16.2
2022-11-28T03:28:45.144Z,16.1
2022-11-28T03:33:47.307Z,16
2022-11-28T03:38:49.714Z,16.2
2022-11-28T03:43:49.599Z,16.2
2022-11-28T03:48:51.476Z,15.9
2022-11-28T03:53:51.304Z,16.2
2022-11-28T03:58:51.654Z,15.9
2022-11-28T04:03:54.110Z,15.9
2022-11-28T04:08:53.831Z,15.9
2022-11-28T04:13:54.034Z,15.9
2022-11-28T04:18:54.232Z,16.2
2022-11-28T04:23:56.935Z,16.2
2022-11-28T04:28:56.565Z,16.2
2022-11-28T04:33:56.644Z,16
2022-11-28T04:38:56.811Z,16.2
2022-11-28T04:43:59.609Z,16.1
2022-11-28T04:48:59.320Z,16.2
2022-11-28T04:53:59.479Z,16
2022-11-28T04:58:59.830Z,16.1
2022-11-28T05:04:00.213Z,16.1
2022-11-28T05:09:00.185Z,16
2022-11-28T05:14:00.167Z,16.1
2022-11-28T05:19:03.133Z,16.1
2022-11-28T05:24:02.701Z,16
2022-11-28T05:29:02.752Z,16
2022-11-28T05:34:05.588Z,16.1
2022-11-28T05:39:05.272Z,15.8
2022-11-28T05:44:05.270Z,15.8
2022-11-28T05:49:08.064Z,16.1
2022-11-28T05:54:07.789Z,15.8
2022-11-28T05:59:07.758Z,16.1
2022-11-28T06:04:10.851Z,15.9
2022-11-28T06:09:10.824Z,15.9
2022-11-28T06:14:10.317Z,16.1
2022-11-28T06:19:13.285Z,16.1
2022-11-28T06:24:12.959Z,16.1
2022-11-28T06:29:13.315Z,16.1
2022-11-28T06:34:13.362Z,16.1
2022-11-28T06:39:13.537Z,15.8
2022-11-28T06:44:13.750Z,16
2022-11-28T06:49:13.769Z,16
2022-11-28T06:54:16.605Z,16.1
2022-11-28T06:59:16.271Z,15.8
2022-11-28T07:04:19.248Z,15.8
2022-11-28T07:09:18.938Z,16.1
2022-11-28T07:14:18.945Z,16
2022-11-28T07:19:19.048Z,15.9
2022-11-28T07:24:19.320Z,16.1
2022-11-28T07:29:19.362Z,16
2022-11-28T07:34:22.333Z,16.1
2022-11-28T07:39:22.057Z,16
2022-11-28T07:44:24.526Z,15.8
2022-11-28T07:49:26.831Z,15.8
2022-11-28T07:54:26.446Z,16.1
2022-11-28T07:59:26.511Z,16
2022-11-28T08:04:29.516Z,16.2
2022-11-28T08:09:29.128Z,16.2
2022-11-28T08:14:29.110Z,16.2
2022-11-28T08:19:32.202Z,16.2
2022-11-28T08:24:29.363Z,16.2
2022-11-28T08:29:29.623Z,16
2022-11-28T08:34:29.844Z,16
2022-11-28T08:39:32.989Z,16.3
2022-11-28T08:44:32.827Z,16
2022-11-28T08:49:32.935Z,16.3
2022-11-28T08:54:33.239Z,16.3
2022-11-28T08:59:33.524Z,16.3
2022-11-28T09:04:33.849Z,16.4
2022-11-28T09:09:34.243Z,16.4
2022-11-28T09:14:34.602Z,16.4
2022-11-28T09:19:34.963Z,16.3
2022-11-28T09:24:35.198Z,16.2
2022-11-28T09:29:35.339Z,16.4
2022-11-28T09:34:35.661Z,16.4
2022-11-28T09:39:50.496Z,16.1
2022-11-28T09:44:39.083Z,16.4
2022-11-28T09:49:40.958Z,16.4
2022-11-28T09:54:39.343Z,16.1
2022-11-28T09:59:39.672Z,16.5
2022-11-28T10:04:40.090Z,16.5
2022-11-28T10:09:39.947Z,16.6
2022-11-28T10:14:40.043Z,16.6
2022-11-28T10:19:54.110Z,16.5
2022-11-28T10:24:40.719Z,16.6
2022-11-28T10:29:41.124Z,16.5
2022-11-28T10:34:41.232Z,16.7
2022-11-28T10:39:44.457Z,16.7
2022-11-28T10:44:46.515Z,16.4
2022-11-28T10:49:46.259Z,16.7
2022-11-28T10:54:46.466Z,16.4
2022-11-28T10:59:46.876Z,16.6
2022-11-28T11:04:49.883Z,16.7
2022-11-28T11:09:49.520Z,16.7
2022-11-28T11:14:49.492Z,16.7
2022-11-28T11:19:50.004Z,16.4
2022-11-28T11:24:52.934Z,16.7
2022-11-28T11:29:53.230Z,16.7
2022-11-28T11:34:52.950Z,16.6
2022-11-28T11:39:53.240Z,16.5
2022-11-28T11:44:53.601Z,16.6
2022-11-28T11:49:53.830Z,16.7
2022-11-28T11:54:53.888Z,16.8
2022-11-28T11:59:54.114Z,16.6
2022-11-28T12:04:55.599Z,16.6
2022-11-28T12:09:54.731Z,16.4
2022-11-28T12:14:57.255Z,16.5
2022-11-28T12:19:59.377Z,16.5
2022-11-28T12:25:01.816Z,16.4
2022-11-28T12:30:01.376Z,16.4
2022-11-28T12:35:04.444Z,16.8
2022-11-28T12:40:04.088Z,16.6
2022-11-28T12:45:04.244Z,16.4
2022-11-28T12:50:07.368Z,17
2022-11-28T12:55:10.028Z,16.7
2022-11-28T13:00:12.515Z,17.1
2022-11-28T13:05:12.332Z,17
2022-11-28T13:10:15.175Z,16.9
2022-11-28T13:15:15.010Z,16.9
2022-11-28T13:20:15.174Z,17.1
2022-11-28T13:25:18.130Z,17.2
2022-11-28T13:30:17.657Z,17
2022-11-28T13:35:17.820Z,17
2022-11-28T13:40:20.622Z,17.3
2022-11-28T13:45:28.357Z,17.3
2022-11-28T13:50:22.782Z,17
2022-11-28T13:55:25.797Z,17.4
2022-11-28T14:00:27.763Z,17.1
2022-11-28T14:05:28.871Z,17.1
2022-11-28T14:10:28.712Z,17.2
2022-11-28T14:15:28.723Z,17.4
2022-11-28T14:20:31.637Z,17.3
2022-11-28T14:25:34.053Z,17.4
2022-11-28T14:30:36.643Z,17.4
2022-11-28T14:35:36.209Z,17.3
2022-11-28T14:40:36.216Z,17.3
2022-11-28T14:45:39.071Z,17.4
2022-11-28T14:50:38.633Z,17.4
2022-11-28T14:55:38.827Z,17.4
2022-11-28T15:00:38.819Z,17.4
2022-11-28T15:05:39.242Z,17.5
2022-11-28T15:10:39.510Z,17.4
2022-11-28T15:15:39.651Z,17.5
2022-11-28T15:20:42.494Z,17.4
2022-11-28T15:25:42.066Z,17
2022-11-28T15:30:42.110Z,17.4
2022-11-28T15:35:42.017Z,17.4
2022-11-28T15:40:42.864Z,17.3
2022-11-28T15:45:43.135Z,17.5
2022-11-28T15:50:43.105Z,17.5
2022-11-28T15:55:43.333Z,17.5
2022-11-28T16:00:43.704Z,17.5
2022-11-28T16:05:43.976Z,17.5
2022-11-28T16:10:45.063Z,17.2
2022-11-28T16:15:49.690Z,17.1
2022-11-28T16:20:45.452Z,17.2
2022-11-28T16:25:48.281Z,17.1
2022-11-28T16:30:48.200Z,17.3
2022-11-28T16:35:48.429Z,17.5
2022-11-28T16:40:48.605Z,17.4
2022-11-28T16:45:49.005Z,17.4
2022-11-28T16:50:49.254Z,17.3
2022-11-28T16:55:52.042Z,17.2
2022-11-28T17:00:51.813Z,17
2022-11-28T17:05:51.778Z,17.1
2022-11-28T17:10:51.969Z,16.9
2022-11-28T17:15:52.282Z,17
2022-11-28T17:20:52.227Z,16.8
2022-11-28T17:25:52.414Z,16.9
2022-11-28T17:30:55.348Z,16.9
2022-11-28T17:35:54.968Z,16.9
2022-11-28T17:40:54.927Z,16.8
2022-11-28T17:45:57.692Z,16.8
2022-11-28T17:50:57.210Z,16.8
2022-11-28T17:55:57.248Z,16.7
2022-11-28T18:01:00.385Z,16.7
2022-11-28T18:06:00.449Z,16.7
2022-11-28T18:10:59.967Z,16.6
2022-11-28T18:15:59.997Z,16.2
2022-11-28T18:20:59.114Z,16.4
2022-11-28T18:25:59.589Z,16.7
2022-11-28T18:30:59.927Z,16.4
2022-11-28T18:36:00.157Z,16.4
2022-11-28T18:41:00.458Z,16.4
2022-11-28T18:46:00.640Z,16.6
2022-11-28T18:51:03.368Z,16.5
2022-11-28T18:56:02.933Z,16.6
2022-11-28T19:01:05.905Z,16.6
2022-11-28T19:06:07.952Z,16.3
2022-11-28T19:11:10.294Z,16.6
2022-11-28T19:16:12.644Z,16.1
2022-11-28T19:21:12.045Z,16.4
2022-11-28T19:26:12.274Z,16.5
2022-11-28T19:31:15.087Z,16.5
2022-11-28T19:36:14.801Z,16.4
2022-11-28T19:41:14.694Z,16.4
2022-11-28T19:46:14.926Z,16.5
2022-11-28T19:51:14.951Z,16.4
2022-11-28T19:56:14.942Z,16.5
2022-11-28T20:01:16.709Z,16
2022-11-28T20:06:16.472Z,16.3
2022-11-28T20:11:19.417Z,16.5
2022-11-28T20:16:18.982Z,16.2
2022-11-28T20:21:21.569Z,16.4
2022-11-28T20:26:23.950Z,16.4
2022-11-28T20:31:23.516Z,16.3
2022-11-28T20:36:23.530Z,16.4
2022-11-28T20:41:26.301Z,16.4
2022-11-28T20:46:26.149Z,16.1
2022-11-28T20:51:26.089Z,16.3
2022-11-28T20:56:26.285Z,16.1
2022-11-28T21:01:29.410Z,16.4
2022-11-28T21:06:31.739Z,16.4
2022-11-28T21:11:55.472Z,16.2
2022-11-28T21:16:31.636Z,16.4
2022-11-28T21:21:34.426Z,16.3
2022-11-28T21:26:39.336Z,16.3
2022-11-28T21:31:37.178Z,16.4
2022-11-28T21:36:36.810Z,16.1
2022-11-28T21:41:36.885Z,16.2
2022-11-28T21:46:37.170Z,16.3
2022-11-28T21:51:37.385Z,16.2
2022-11-28T21:56:37.439Z,16
2022-11-28T22:01:37.660Z,15.8
2022-11-28T22:06:37.491Z,16.3
2022-11-28T22:11:37.760Z,16.2
2022-11-28T22:16:40.568Z,15.9
2022-11-28T22:21:51.147Z,16.1
2022-11-28T22:26:43.244Z,15.9
2022-11-28T22:31:43.019Z,16.2
2022-11-28T22:36:45.746Z,16.3
2022-11-28T22:41:45.202Z,16.1
2022-11-28T22:46:45.429Z,16.2
2022-11-28T22:51:45.688Z,15.8
2022-11-28T22:56:48.526Z,15.9
2022-11-28T23:01:50.929Z,16.2
2022-11-28T23:06:52.948Z,16.2
2022-11-28T23:11:55.303Z,16.2
2022-11-28T23:16:54.780Z,16
2022-11-28T23:21:55.009Z,15.9
2022-11-28T23:26:58.078Z,15.9
2022-11-28T23:31:57.566Z,16.2
2022-11-28T23:36:57.806Z,15.9
2022-11-28T23:42:00.742Z,16.2
2022-11-28T23:47:00.571Z,16
2022-11-28T23:52:00.933Z,16.2
2022-11-28T23:57:00.960Z,16
